Time;durP1;ratioP1;P1;durP2;ratioP2;P2;SDS_P1;SDS_P2;PMS_P1;PMS_P2;Temp;Humidity;BMP_temperature;BMP_pressure;BME280_temperature;BME280_humidity;BME280_pressure;Samples;Min_cycle;Max_cycle;Signal;HPM_P1;HPM_P2
2021/11/04 00:00:25;;;;;;;44.95;18.13;;;;;;;10.88;64.09;100326.41;5040720;27;123087;-72
2021/11/04 00:02:54;;;;;;;48.22;18.52;;;;;;;10.89;64.06;100320.19;5043426;27;114929;-71
2021/11/04 00:05:23;;;;;;;43.78;17.65;;;;;;;10.93;64.03;100327.00;5045020;27;115276;-71
2021/11/04 00:07:56;;;;;;;44.05;17.77;;;;;;;10.94;64.30;100328.72;5039234;27;123308;-71
2021/11/04 00:10:24;;;;;;;36.17;16.40;;;;;;;10.94;63.96;100323.41;5039713;27;122966;-71
2021/11/04 00:12:52;;;;;;;40.65;17.10;;;;;;;10.93;63.97;100321.72;5043391;27;114042;-72
2021/11/04 00:15:20;;;;;;;37.60;16.27;;;;;;;10.92;63.94;100320.00;5034117;27;114611;-71
2021/11/04 00:17:48;;;;;;;39.33;16.52;;;;;;;10.90;63.85;100316.56;5031634;27;124251;-71
2021/11/04 00:20:17;;;;;;;37.13;16.45;;;;;;;10.89;63.85;100314.88;5040953;27;123943;-71
2021/11/04 00:22:46;;;;;;;37.47;14.52;;;;;;;10.87;64.03;100311.47;5049548;27;114657;-71
2021/11/04 00:25:13;;;;;;;36.05;15.73;;;;;;;10.85;64.11;100308.00;5044372;27;112878;-71
2021/11/04 00:27:40;;;;;;;38.63;15.35;;;;;;;10.84;63.76;100311.63;5042579;27;124066;-71
2021/11/04 00:30:09;;;;;;;36.40;15.73;;;;;;;10.83;64.05;100310.78;5038767;27;123933;-71
2021/11/04 00:32:47;;;;;;;35.38;15.73;;;;;;;10.83;64.34;100299.28;5039669;27;114942;-72
2021/11/04 00:35:15;;;;;;;36.38;16.02;;;;;;;10.82;63.93;100313.50;5040840;27;115068;-72
2021/11/04 00:37:43;;;;;;;41.75;16.17;;;;;;;10.81;63.97;100309.13;5047090;27;124242;-71
2021/11/04 00:40:14;;;;;;;39.17;16.30;;;;;;;10.82;63.84;100308.19;5033456;27;123952;-71
2021/11/04 00:42:41;;;;;;;36.22;15.30;;;;;;;10.80;64.24;100300.34;5042450;27;114292;-71
2021/11/04 00:45:10;;;;;;;37.30;14.60;;;;;;;10.79;63.87;100303.06;5043910;27;113856;-72
2021/11/04 00:47:37;;;;;;;33.50;14.75;;;;;;;10.78;63.77;100304.00;5043598;27;124829;-71
2021/11/04 00:50:07;;;;;;;38.97;16.33;;;;;;;10.76;63.79;100309.38;5041437;27;124489;-70
2021/11/04 00:52:35;;;;;;;45.88;16.38;;;;;;;10.75;63.78;100312.13;5031102;27;113205;-71
2021/11/04 00:55:03;;;;;;;38.17;15.93;;;;;;;10.72;64.08;100307.84;5039775;27;113818;-71
2021/11/04 00:57:30;;;;;;;42.97;15.63;;;;;;;10.74;64.05;100315.69;5038763;27;123930;-71
2021/11/04 00:59:57;;;;;;;40.20;15.85;;;;;;;10.75;64.24;100312.13;5037971;27;123805;-71
2021/11/04 01:02:25;;;;;;;39.97;15.70;;;;;;;10.74;64.00;100313.03;5038145;27;114957;-71
2021/11/04 01:04:52;;;;;;;41.25;15.88;;;;;;;10.71;63.97;100306.97;5042600;27;114719;-71
2021/11/04 01:07:20;;;;;;;36.55;15.02;;;;;;;10.70;63.95;100310.56;5043764;27;123876;-71
2021/11/04 01:09:47;;;;;;;42.05;15.90;;;;;;;10.68;63.95;100307.16;5041848;27;123249;-71
2021/11/04 01:12:14;;;;;;;38.65;15.77;;;;;;;10.67;63.69;100305.44;5037170;27;114365;-71
2021/11/04 01:14:42;;;;;;;43.13;16.05;;;;;;;10.66;63.84;100298.44;5033758;27;114417;-71
2021/11/04 01:17:09;;;;;;;42.10;15.25;;;;;;;10.66;63.77;100298.44;5045270;27;122170;-71
2021/11/04 01:19:37;;;;;;;42.53;15.75;;;;;;;10.63;63.95;100303.91;5040286;27;123838;-70
2021/11/04 01:22:04;;;;;;;41.45;15.50;;;;;;;10.61;64.09;100295.19;5048785;27;114166;-71
2021/11/04 01:24:32;;;;;;;44.63;14.85;;;;;;;10.61;63.88;100289.88;5040276;27;115337;-71
2021/11/04 01:27:04;;;;;;;44.58;14.73;;;;;;;10.60;63.76;100298.75;5032822;27;124318;-77
2021/11/04 01:29:31;;;;;;;41.75;16.17;;;;;;;10.59;63.85;100289.13;5047205;27;124190;-71
2021/11/04 01:31:58;;;;;;;47.80;15.60;;;;;;;10.58;64.02;100297.97;5043188;27;114191;-72
2021/11/04 01:34:25;;;;;;;41.17;15.10;;;;;;;10.58;63.90;100289.19;5036488;27;114486;-72
2021/11/04 01:36:53;;;;;;;41.63;15.52;;;;;;;10.56;64.02;100291.91;5041410;27;123892;-72
2021/11/04 01:39:20;;;;;;;39.47;15.00;;;;;;;10.56;63.92;100297.22;5041628;27;123707;-71
2021/11/04 01:41:49;;;;;;;38.15;14.23;;;;;;;10.54;63.91;100293.78;5041871;27;114195;-71
2021/11/04 01:44:16;;;;;;;39.50;13.80;;;;;;;10.52;63.82;100300.97;5043606;27;114940;-71
2021/11/04 01:46:44;;;;;;;36.90;14.15;;;;;;;10.48;63.85;100304.72;5037381;27;124926;-72
2021/11/04 01:49:11;;;;;;;36.67;13.75;;;;;;;10.43;63.57;100301.47;5032657;27;121930;-71
2021/11/04 01:51:38;;;;;;;37.72;14.45;;;;;;;10.40;63.60;100312.22;5046689;27;114333;-71
2021/11/04 01:54:05;;;;;;;37.45;14.48;;;;;;;10.36;63.69;100300.06;5037903;27;113999;-71
2021/11/04 01:56:37;;;;;;;41.08;14.30;;;;;;;10.33;63.92;100301.94;5038694;27;124281;-72
2021/11/04 01:59:05;;;;;;;43.40;14.23;;;;;;;10.32;64.02;100294.97;5040401;27;124189;-72
2021/11/04 02:01:33;;;;;;;38.75;14.50;;;;;;;10.31;63.97;100302.97;5042484;27;114296;-72
2021/11/04 02:04:08;;;;;;;42.55;14.65;;;;;;;10.28;64.27;100290.72;5041027;27;114072;-71
2021/11/04 02:06:50;;;;;;;44.17;15.60;;;;;;;10.26;63.85;100284.63;5037464;27;124463;-71
2021/11/04 02:09:29;;;;;;;42.88;13.82;;;;;;;10.25;63.98;100284.75;5041453;27;124186;-71
2021/11/04 02:12:07;;;;;;;45.55;14.63;;;;;;;10.24;64.15;100291.81;5045171;27;115493;-71
2021/11/04 02:14:44;;;;;;;43.05;15.13;;;;;;;10.23;64.23;100292.75;5040573;27;114896;-71
2021/11/04 02:17:12;;;;;;;39.55;14.57;;;;;;;10.23;64.16;100295.41;5039647;27;124796;-71
2021/11/04 02:19:53;;;;;;;39.53;14.98;;;;;;;10.21;64.31;100302.56;5030144;27;124054;-70
2021/11/04 02:22:26;;;;;;;39.00;14.07;;;;;;;10.23;63.97;100307.78;5039602;27;114990;-71
2021/11/04 02:25:18;;;;;;;41.38;14.13;;;;;;;10.24;64.11;100312.97;5037797;27;113902;-72
2021/11/04 02:27:57;;;;;;;41.38;14.52;;;;;;;10.26;64.12;100311.09;5032691;27;123872;-71
2021/11/04 02:30:27;;;;;;;37.65;13.93;;;;;;;10.30;64.29;100312.72;5037796;27;123904;-71
2021/11/04 02:32:56;;;;;;;39.55;15.10;;;;;;;10.35;64.31;100308.97;5036111;27;114595;-71
2021/11/04 02:35:24;;;;;;;44.38;13.85;;;;;;;10.38;64.16;100308.78;5040299;27;114123;-70
2021/11/04 02:37:54;;;;;;;40.08;14.85;;;;;;;10.41;63.89;100308.63;5042048;27;125112;-71
2021/11/04 02:40:23;;;;;;;43.03;13.23;;;;;;;10.38;63.99;100314.06;5043430;27;124652;-71
2021/11/04 02:42:52;;;;;;;34.47;13.40;;;;;;;10.38;64.32;100316.72;5047538;27;114344;-71
2021/11/04 02:45:24;;;;;;;41.80;14.02;;;;;;;10.38;63.96;100314.06;5038343;27;114128;-71
2021/11/04 02:47:52;;;;;;;37.80;13.05;;;;;;;10.37;63.84;100312.38;5038780;27;124214;-71
2021/11/04 02:50:20;;;;;;;41.38;14.10;;;;;;;10.36;64.01;100310.66;5037899;27;125132;-71
2021/11/04 02:52:47;;;;;;;34.42;13.98;;;;;;;10.35;64.07;100314.25;5039750;27;114967;-71
2021/11/04 02:55:15;;;;;;;38.38;12.85;;;;;;;10.35;64.08;100314.25;5044997;27;114102;-71
2021/11/04 02:57:45;;;;;;;35.17;13.38;;;;;;;10.32;63.89;100316.13;5040073;27;124005;-70
2021/11/04 03:00:16;;;;;;;32.78;12.68;;;;;;;10.31;63.77;100316.22;5037952;27;124661;-71
2021/11/04 03:02:43;;;;;;;31.90;12.60;;;;;;;10.29;63.98;100310.94;5041175;27;115096;-70
2021/11/04 03:05:11;;;;;;;32.55;11.88;;;;;;;10.29;63.97;100321.53;5039823;27;114977;-70
2021/11/04 03:07:38;;;;;;;29.40;12.45;;;;;;;10.29;63.83;100313.59;5038827;27;124804;-66
2021/11/04 03:10:06;;;;;;;34.58;13.48;;;;;;;10.28;63.88;100318.97;5042600;27;123231;-69
2021/11/04 03:12:34;;;;;;;33.13;13.57;;;;;;;10.28;64.04;100318.97;5042078;27;114285;-65
2021/11/04 03:15:11;;;;;;;31.02;12.18;;;;;;;10.28;63.87;100319.84;5037827;27;113734;-66
2021/11/04 03:17:39;;;;;;;37.40;12.25;;;;;;;10.28;64.08;100319.84;5043946;27;124056;-67
2021/11/04 03:20:08;;;;;;;30.58;12.80;;;;;;;10.28;64.03;100330.44;5052882;27;122003;-66
2021/11/04 03:22:37;;;;;;;32.83;13.05;;;;;;;10.29;63.68;100321.53;5044934;27;114568;-66
2021/11/04 03:25:05;;;;;;;29.50;12.23;;;;;;;10.28;63.76;100325.13;5044996;27;113563;-66
2021/11/04 03:27:33;;;;;;;34.78;13.55;;;;;;;10.29;64.01;100332.13;5043476;27;123976;-66
2021/11/04 03:30:04;;;;;;;36.45;13.63;;;;;;;10.30;64.04;100333.88;5044753;27;123932;-68
2021/11/04 03:32:32;;;;;;;35.47;13.88;;;;;;;10.28;63.81;100335.72;5042863;27;114448;-66
2021/11/04 03:35:01;;;;;;;73.80;14.25;;;;;;;10.29;64.07;100342.72;5041334;27;114466;-66
2021/11/04 03:37:29;;;;;;;36.50;14.07;;;;;;;10.31;63.98;100345.31;5040385;27;124732;-66
2021/11/04 03:39:58;;;;;;;37.53;14.20;;;;;;;10.30;63.92;100347.13;5050205;27;124302;-65
2021/11/04 03:42:26;;;;;;;33.38;14.45;;;;;;;10.31;63.66;100340.88;5039993;27;114635;-66
2021/11/04 03:44:54;;;;;;;34.08;14.02;;;;;;;10.31;63.87;100351.47;5043298;27;114440;-66
2021/11/04 03:47:22;;;;;;;39.63;14.27;;;;;;;10.31;63.75;100351.47;5043849;27;124469;-66
2021/11/04 03:49:51;;;;;;;29.05;14.05;;;;;;;10.29;63.76;100350.66;5033547;27;124716;-72
2021/11/04 03:52:19;;;;;;;35.05;14.07;;;;;;;10.27;63.91;100351.69;5045178;27;115315;-71
2021/11/04 03:54:46;;;;;;;36.55;14.93;;;;;;;10.25;63.68;100343.81;5039327;27;113909;-71
2021/11/04 03:57:14;;;;;;;39.53;15.05;;;;;;;10.23;64.06;100343.03;5040356;27;124890;-71
2021/11/04 03:59:41;;;;;;;35.85;14.45;;;;;;;10.22;63.81;100351.91;5037511;27;123761;-71
2021/11/04 04:02:09;;;;;;;41.25;15.55;;;;;;;10.22;63.98;100351.91;5034551;27;114123;-71
2021/11/04 04:04:38;;;;;;;34.78;14.57;;;;;;;10.23;63.91;100350.13;5038171;27;114318;-71
2021/11/04 04:07:05;;;;;;;38.25;15.32;;;;;;;10.22;63.81;100341.31;5031993;27;123882;-71
2021/11/04 04:09:34;;;;;;;38.17;15.93;;;;;;;10.22;63.68;100346.59;5034354;27;124087;-72
2021/11/04 04:12:01;;;;;;;34.88;15.48;;;;;;;10.21;63.85;100355.50;5045823;27;114001;-73
2021/11/04 04:14:29;;;;;;;39.88;16.70;;;;;;;10.21;63.84;100354.63;5044242;27;113875;-71
2021/11/04 04:16:56;;;;;;;41.25;16.40;;;;;;;10.21;64.10;100347.56;5034747;27;124039;-71
2021/11/04 04:19:23;;;;;;;37.00;14.80;;;;;;;10.21;64.08;100355.50;5045142;27;123865;-72
2021/11/04 04:21:50;;;;;;;36.58;14.57;;;;;;;10.20;64.25;100364.34;5044360;27;114524;-71
2021/11/04 04:24:18;;;;;;;37.08;14.77;;;;;;;10.19;63.82;100351.19;5046041;27;113789;-66
2021/11/04 04:26:45;;;;;;;35.95;15.15;;;;;;;10.17;63.96;100338.06;5036850;27;125580;-66
2021/11/04 04:29:12;;;;;;;34.72;14.93;;;;;;;10.17;63.73;100338.06;5038566;27;123891;-67
2021/11/04 04:31:39;;;;;;;37.13;14.73;;;;;;;10.18;63.82;100350.34;5040573;27;114088;-66
2021/11/04 04:34:06;;;;;;;39.55;15.27;;;;;;;10.16;63.76;100352.22;5039581;27;114347;-71
2021/11/04 04:36:33;;;;;;;35.58;15.40;;;;;;;10.17;64.12;100343.38;5035027;27;123203;-66
2021/11/04 04:39:01;;;;;;;37.97;16.00;;;;;;;10.16;64.06;100351.38;5039223;27;124338;-66
2021/11/04 04:41:28;;;;;;;38.45;16.25;;;;;;;10.15;64.04;100350.50;5033178;27;115870;-66
2021/11/04 04:43:55;;;;;;;39.65;15.88;;;;;;;10.15;64.11;100350.50;5038615;27;114679;-67
2021/11/04 04:46:22;;;;;;;35.08;15.85;;;;;;;10.15;64.07;100347.84;5034606;27;124013;-66
2021/11/04 04:48:51;;;;;;;38.45;16.38;;;;;;;10.15;64.19;100355.78;5041047;27;124041;-66
2021/11/04 04:51:19;;;;;;;34.90;14.82;;;;;;;10.16;64.04;100356.66;5039707;27;114255;-66
2021/11/04 04:53:47;;;;;;;35.92;15.02;;;;;;;10.16;64.17;100356.66;5037724;27;114744;-67
2021/11/04 04:56:14;;;;;;;37.05;15.27;;;;;;;10.16;64.23;100352.22;5044957;27;124025;-67
2021/11/04 04:58:41;;;;;;;35.55;14.00;;;;;;;10.15;64.21;100355.78;5036899;27;123713;-67
2021/11/04 05:01:09;;;;;;;31.65;14.82;;;;;;;10.17;64.21;100353.06;5042564;27;114589;-67
2021/11/04 05:03:36;;;;;;;33.50;14.25;;;;;;;10.16;64.30;100359.31;5037254;27;113840;-67
2021/11/04 05:06:03;;;;;;;34.25;14.77;;;;;;;10.19;64.28;100362.66;5038426;27;123979;-67
2021/11/04 05:08:31;;;;;;;34.88;14.77;;;;;;;10.20;64.33;100364.34;5039835;27;124691;-67
2021/11/04 05:10:58;;;;;;;33.13;15.05;;;;;;;10.22;64.31;100366.94;5038362;27;114260;-67
2021/11/04 05:13:25;;;;;;;33.85;15.07;;;;;;;10.23;64.39;100364.22;5038220;27;113483;-70
2021/11/04 05:15:52;;;;;;;31.77;14.63;;;;;;;10.25;64.24;100367.63;5040338;27;123831;-67
2021/11/04 05:18:19;;;;;;;32.13;14.52;;;;;;;10.25;64.14;100356.19;5038927;27;123803;-67
2021/11/04 05:20:46;;;;;;;35.50;15.30;;;;;;;10.25;64.26;100357.06;5038918;27;114177;-67
2021/11/04 05:23:18;;;;;;;33.42;14.32;;;;;;;10.25;64.04;100359.69;5045526;27;114088;-67
2021/11/04 05:25:45;;;;;;;31.02;14.05;;;;;;;10.26;64.05;100364.03;5037127;27;124042;-67
2021/11/04 05:28:12;;;;;;;30.05;14.35;;;;;;;10.25;63.85;100362.34;5034970;27;123973;-68
2021/11/04 05:30:41;;;;;;;33.22;14.68;;;;;;;10.24;64.26;100365.91;5032997;27;115192;-67
2021/11/04 05:33:09;;;;;;;33.95;15.15;;;;;;;10.22;64.36;100359.84;5034321;27;114979;-67
2021/11/04 05:35:36;;;;;;;34.72;15.95;;;;;;;10.22;64.04;100362.50;5046857;27;124108;-71
2021/11/04 05:38:03;;;;;;;32.35;14.95;;;;;;;10.22;64.14;100367.78;5040478;27;123597;-71
2021/11/04 05:40:33;;;;;;;30.67;14.38;;;;;;;10.22;64.37;100362.50;5041278;27;114086;-71
2021/11/04 05:43:03;;;;;;;32.38;14.20;;;;;;;10.22;64.15;100375.72;5039299;27;113888;-71
2021/11/04 05:45:30;;;;;;;31.75;14.80;;;;;;;10.23;64.44;100388.03;5054597;27;122903;-71
2021/11/04 05:47:57;;;;;;;32.85;15.02;;;;;;;10.22;64.39;100388.09;5041664;27;123940;-70
2021/11/04 05:50:25;;;;;;;31.92;15.10;;;;;;;10.23;64.24;100390.69;5054520;22;114374;-76
2021/11/04 05:52:52;;;;;;;33.42;15.23;;;;;;;10.25;64.49;100388.81;5038031;27;114758;-76
2021/11/04 05:55:19;;;;;;;34.38;15.48;;;;;;;10.29;64.20;100385.06;5018767;27;124649;-76
2021/11/04 05:57:46;;;;;;;34.10;15.30;;;;;;;10.32;64.49;100390.25;5021697;28;123076;-75
2021/11/04 06:00:14;;;;;;;37.40;16.10;;;;;;;10.36;64.09;100392.72;5007958;28;113659;-76
2021/11/04 06:02:41;;;;;;;34.80;15.70;;;;;;;10.40;64.46;100391.66;5015652;28;114500;-76
2021/11/04 06:05:08;;;;;;;35.95;16.58;;;;;;;10.43;64.27;100383.53;5037543;27;124189;-75
2021/11/04 06:07:35;;;;;;;33.58;15.80;;;;;;;10.45;64.18;100384.31;5014497;28;124042;-76
2021/11/04 06:10:03;;;;;;;32.75;15.43;;;;;;;10.47;64.31;100390.38;5015065;28;115503;-76
2021/11/04 06:12:30;;;;;;;36.53;15.50;;;;;;;10.50;64.08;100392.88;5013853;27;113857;-76
2021/11/04 06:14:57;;;;;;;37.00;15.80;;;;;;;10.52;64.42;100396.28;5014444;28;123888;-76
2021/11/04 06:17:24;;;;;;;35.92;15.90;;;;;;;10.54;64.53;100391.78;5014482;27;124040;-76
2021/11/04 06:19:52;;;;;;;34.03;14.98;;;;;;;10.54;64.15;100399.72;5009164;28;115394;-76
2021/11/04 06:22:19;;;;;;;33.50;16.48;;;;;;;10.55;64.07;100406.72;5024174;28;115457;-76
2021/11/04 06:24:46;;;;;;;34.25;15.70;;;;;;;10.55;64.08;100412.03;5019524;27;123883;-75
2021/11/04 06:27:13;;;;;;;34.05;15.60;;;;;;;10.57;64.26;100410.16;5017881;28;124449;-75
2021/11/04 06:29:40;;;;;;;30.73;14.15;;;;;;;10.59;64.06;100413.56;5020104;28;114152;-76
2021/11/04 06:32:07;;;;;;;32.78;14.75;;;;;;;10.60;64.09;100409.97;5023595;28;113273;-75
2021/11/04 06:34:34;;;;;;;32.85;14.57;;;;;;;10.60;64.08;100420.56;5023848;28;123903;-75
2021/11/04 06:37:02;;;;;;;28.35;13.52;;;;;;;10.60;64.23;100425.88;5017543;27;123219;-75
2021/11/04 06:39:29;;;;;;;30.08;13.80;;;;;;;10.60;64.17;100420.56;5024592;28;113951;-76
2021/11/04 06:41:56;;;;;;;27.75;13.60;;;;;;;10.61;63.89;100422.28;5022733;28;112916;-76
2021/11/04 06:44:23;;;;;;;27.25;13.32;;;;;;;10.60;64.07;100425.00;5013274;28;123324;-75
2021/11/04 06:46:55;;;;;;;27.95;12.93;;;;;;;10.59;64.10;100424.16;5022791;28;124040;-76
2021/11/04 06:49:25;;;;;;;29.10;13.57;;;;;;;10.59;64.00;100424.16;5007368;27;113218;-75
2021/11/04 06:51:55;;;;;;;29.20;13.68;;;;;;;10.58;64.06;100438.34;5024293;27;111846;-75
2021/11/04 06:54:24;;;;;;;27.77;13.27;;;;;;;10.57;64.14;100447.22;5012718;28;125072;-76
2021/11/04 06:56:54;;;;;;;31.60;14.25;;;;;;;10.56;64.18;100440.19;5015464;28;124059;-76
2021/11/04 06:59:23;;;;;;;32.53;14.32;;;;;;;10.55;64.34;100443.81;5004938;28;113594;-76
2021/11/04 07:01:58;;;;;;;29.88;14.13;;;;;;;10.55;63.91;100443.81;5025827;27;112900;-75
2021/11/04 07:04:29;;;;;;;29.77;13.23;;;;;;;10.53;63.90;100440.38;5014563;28;123970;-74
2021/11/04 07:07:15;;;;;;;31.63;13.88;;;;;;;10.53;64.01;100445.69;5027445;28;122625;-75
2021/11/04 07:09:42;;;;;;;26.88;12.98;;;;;;;10.52;64.15;100449.25;5027543;27;114423;-74
2021/11/04 07:12:12;;;;;;;31.42;14.07;;;;;;;10.49;63.94;100449.38;5034847;27;115786;-75
2021/11/04 07:14:42;;;;;;;28.45;14.15;;;;;;;10.48;63.90;100445.06;5022549;28;124008;-75
2021/11/04 07:17:14;;;;;;;31.73;14.65;;;;;;;10.47;63.97;100451.25;5026389;28;123556;-74
2021/11/04 07:19:43;;;;;;;28.60;14.02;;;;;;;10.49;64.06;100449.38;5014507;28;114074;-76
2021/11/04 07:22:48;;;;;;;32.20;14.15;;;;;;;10.48;64.02;100437.09;5016878;28;114151;-75
2021/11/04 07:25:17;;;;;;;33.63;15.00;;;;;;;10.47;64.17;100456.56;5001541;28;124077;-76
2021/11/04 07:28:06;;;;;;;27.67;13.80;;;;;;;10.46;64.11;100454.88;5021498;28;124248;-76
2021/11/04 07:30:34;;;;;;;29.98;14.10;;;;;;;10.47;64.10;100445.97;5020617;28;113479;-76
2021/11/04 07:33:04;;;;;;;33.25;15.05;;;;;;;10.48;64.34;100447.69;5019087;28;114198;-75
2021/11/04 07:35:36;;;;;;;34.60;15.45;;;;;;;10.46;64.09;100460.16;5028828;28;125285;-75
2021/11/04 07:38:14;;;;;;;34.22;14.10;;;;;;;10.41;63.86;100456.88;5023031;27;124131;-75
2021/11/04 07:40:41;;;;;;;31.65;14.73;;;;;;;10.39;63.95;100448.16;5030542;28;112566;-76
2021/11/04 07:43:09;;;;;;;35.47;15.60;;;;;;;10.37;64.13;100455.31;5012316;28;113118;-76
2021/11/04 07:45:37;;;;;;;36.45;14.95;;;;;;;10.35;64.28;100462.50;5022780;28;123774;-76
2021/11/04 07:48:04;;;;;;;31.42;14.65;;;;;;;10.33;64.18;100460.75;5031455;28;122040;-75
2021/11/04 07:50:32;;;;;;;33.80;15.40;;;;;;;10.33;64.18;100459.91;5028763;27;114449;-76
2021/11/04 07:52:59;;;;;;;28.83;14.13;;;;;;;10.32;64.15;100467.00;5023499;28;113979;-76
2021/11/04 07:55:27;;;;;;;35.80;13.88;;;;;;;10.31;64.31;100467.94;5018793;28;124544;-77
2021/11/04 07:57:54;;;;;;;29.70;14.68;;;;;;;10.30;64.38;100460.94;5029239;28;123118;-73
2021/11/04 08:00:28;;;;;;;38.97;12.95;;;;;;;10.30;64.11;100460.94;5018390;28;115080;-76
2021/11/04 08:02:55;;;;;;;30.00;13.98;;;;;;;10.29;64.40;100469.75;5031848;27;114457;-74
2021/11/04 08:05:24;;;;;;;26.55;13.18;;;;;;;10.29;64.59;100459.19;5020299;28;124968;-75
2021/11/04 08:07:51;;;;;;;34.28;13.07;;;;;;;10.30;64.05;100460.94;5023978;28;125009;-75
2021/11/04 08:10:19;;;;;;;30.92;13.45;;;;;;;10.30;64.17;100470.63;5014003;28;114334;-75
2021/11/04 08:12:46;;;;;;;27.77;13.57;;;;;;;10.32;64.22;100469.66;5015991;28;113785;-75
2021/11/04 08:15:14;;;;;;;20.90;11.63;;;;;;;10.33;64.35;100476.66;5015205;28;123939;-76
2021/11/04 08:17:42;;;;;;;27.98;11.93;;;;;;;10.31;64.30;100467.94;5024337;27;123170;-74
2021/11/04 08:20:10;;;;;;;23.88;11.52;;;;;;;10.31;64.49;100473.22;5025552;27;113721;-74
2021/11/04 08:22:38;;;;;;;23.17;11.32;;;;;;;10.30;64.15;100476.81;5005005;28;113271;-73
2021/11/04 08:25:06;;;;;;;21.95;11.50;;;;;;;10.29;63.96;100483.00;5021535;28;123764;-76
2021/11/04 08:27:34;;;;;;;24.48;11.88;;;;;;;10.27;64.27;100476.94;5023213;28;123736;-75
2021/11/04 08:30:03;;;;;;;21.95;11.40;;;;;;;10.25;64.20;100473.50;5023732;28;115006;-74
2021/11/04 08:32:30;;;;;;;18.33;11.38;;;;;;;10.25;64.12;100494.69;4995111;28;113301;-75
2021/11/04 08:34:57;;;;;;;21.25;11.50;;;;;;;10.23;64.15;100475.38;5025319;28;123917;-75
2021/11/04 08:37:24;;;;;;;25.30;12.02;;;;;;;10.22;64.47;100489.53;5017308;27;122823;-76
2021/11/04 08:39:51;;;;;;;23.88;11.95;;;;;;;10.23;64.32;100479.81;5031002;28;114463;-75
2021/11/04 08:42:18;;;;;;;23.00;12.05;;;;;;;10.23;64.17;100478.03;5026679;28;113885;-75
2021/11/04 08:44:45;;;;;;;23.25;12.25;;;;;;;10.25;64.21;100478.78;5021290;28;123732;-75
2021/11/04 08:47:13;;;;;;;23.00;12.15;;;;;;;10.27;64.37;100476.94;5027998;28;123687;-75
2021/11/04 08:49:41;;;;;;;20.77;11.13;;;;;;;10.30;64.21;100479.47;5029854;28;114124;-77
2021/11/04 08:52:08;;;;;;;19.77;10.75;;;;;;;10.32;64.51;100482.00;5004147;28;113611;-76
2021/11/04 08:54:36;;;;;;;22.13;11.75;;;;;;;10.36;64.33;100486.25;5033019;28;124549;-74
2021/11/04 08:57:04;;;;;;;22.20;12.15;;;;;;;10.42;64.56;100490.38;5019044;28;123877;-74
2021/11/04 08:59:31;;;;;;;21.85;11.25;;;;;;;10.49;64.47;100499.69;5021417;28;113996;-74
2021/11/04 09:01:59;;;;;;;24.90;12.88;;;;;;;10.55;64.64;100496.75;5017047;27;97714;-76
2021/11/04 09:04:27;;;;;;;25.50;13.30;;;;;;;10.60;64.09;100505.31;5027021;28;124305;-75
2021/11/04 09:06:54;;;;;;;21.40;11.85;;;;;;;10.63;64.38;100504.31;5021333;28;123638;-74
2021/11/04 09:09:22;;;;;;;21.58;11.43;;;;;;;10.65;64.31;100498.00;5026545;28;114368;-75
2021/11/04 09:11:49;;;;;;;23.77;11.70;;;;;;;10.68;64.20;100505.78;5027774;28;114007;-74
2021/11/04 09:14:17;;;;;;;22.85;12.48;;;;;;;10.67;64.13;100506.72;5012819;28;123308;-74
2021/11/04 09:16:44;;;;;;;22.00;11.60;;;;;;;10.69;64.27;100510.16;5027120;28;125377;-74
2021/11/04 09:19:11;;;;;;;22.45;11.02;;;;;;;10.71;64.15;100523.31;5029983;28;114337;-74
2021/11/04 09:21:38;;;;;;;21.17;11.82;;;;;;;10.74;64.07;100527.59;5028503;28;114016;-74
2021/11/04 09:24:05;;;;;;;20.75;11.00;;;;;;;10.78;64.28;100534.47;5029638;28;124684;-74
2021/11/04 09:26:35;;;;;;;19.65;11.63;;;;;;;10.81;64.31;100529.00;5029002;28;124135;-75
2021/11/04 09:29:02;;;;;;;25.42;12.00;;;;;;;10.87;64.23;100531.34;5020708;28;113104;-73
2021/11/04 09:31:29;;;;;;;22.80;11.77;;;;;;;10.88;64.28;100531.25;5019240;28;113895;-75
2021/11/04 09:33:58;;;;;;;20.95;11.05;;;;;;;10.90;64.07;100523.22;5015942;28;124407;-75
2021/11/04 09:36:28;;;;;;;22.40;11.10;;;;;;;10.91;63.85;100524.94;5007330;27;122870;-74
2021/11/04 09:39:00;;;;;;;23.15;11.50;;;;;;;10.94;64.05;100530.06;5019122;28;116428;-77
2021/11/04 09:41:28;;;;;;;22.35;11.60;;;;;;;10.95;64.05;100525.66;5021211;28;114969;-75
2021/11/04 09:43:57;;;;;;;22.10;11.75;;;;;;;10.94;63.97;100540.69;5028463;28;124113;-77
2021/11/04 09:46:24;;;;;;;20.33;11.57;;;;;;;10.95;64.10;100542.41;5028825;28;123804;-74
2021/11/04 09:48:52;;;;;;;21.60;11.00;;;;;;;10.95;63.87;100546.84;5013053;27;113690;-76
2021/11/04 09:51:20;;;;;;;23.42;11.90;;;;;;;10.96;64.21;100549.41;5024255;27;113775;-75
2021/11/04 09:53:48;;;;;;;21.40;11.40;;;;;;;10.97;63.84;100551.13;5016927;27;122985;-74
2021/11/04 09:56:17;;;;;;;23.65;11.73;;;;;;;10.98;63.99;100558.16;5014747;28;123844;-75
2021/11/04 09:58:45;;;;;;;20.83;11.70;;;;;;;11.01;64.06;100560.63;5021728;28;113948;-73
2021/11/04 10:01:26;;;;;;;22.80;12.02;;;;;;;11.03;64.04;100564.06;5011017;28;114012;-75
2021/11/04 10:03:54;;;;;;;24.05;12.95;;;;;;;11.06;64.03;100565.72;5003780;28;122952;-75
2021/11/04 10:06:23;;;;;;;22.20;12.00;;;;;;;11.09;64.07;100566.41;5019931;28;124241;-75
2021/11/04 10:09:11;;;;;;;23.48;11.57;;;;;;;11.10;64.15;100578.72;5015096;28;114108;-74
2021/11/04 10:11:44;;;;;;;20.55;11.15;;;;;;;11.14;63.95;100579.41;5014910;28;113674;-75
2021/11/04 10:14:16;;;;;;;20.85;11.52;;;;;;;11.17;64.13;100584.56;5016928;28;122834;-75
2021/11/04 10:16:43;;;;;;;21.73;12.38;;;;;;;11.18;64.10;100585.41;5009528;28;121996;-75
2021/11/04 10:19:15;;;;;;;23.08;11.85;;;;;;;11.19;63.94;100587.09;5030544;28;113549;-74
2021/11/04 10:21:45;;;;;;;21.05;11.52;;;;;;;11.20;64.24;100578.22;5033348;28;114224;-74
2021/11/04 10:24:23;;;;;;;22.15;11.63;;;;;;;11.22;63.81;100576.34;5035790;28;123942;-76
2021/11/04 10:26:55;;;;;;;21.38;11.25;;;;;;;11.25;63.70;100577.06;5035592;28;123510;-74
2021/11/04 10:29:26;;;;;;;21.67;11.77;;;;;;;11.27;63.88;100579.63;5035214;28;114593;-74
2021/11/04 10:31:58;;;;;;;20.63;11.45;;;;;;;11.29;63.85;100585.72;5032491;28;113344;-75
2021/11/04 10:34:26;;;;;;;22.88;11.57;;;;;;;11.32;64.04;100582.03;5038055;27;122917;-74
2021/11/04 10:37:14;;;;;;;20.63;10.82;;;;;;;11.35;63.91;100590.69;5040234;28;124048;-74
2021/11/04 10:39:42;;;;;;;19.48;11.18;;;;;;;11.41;64.08;100593.00;5031857;28;114058;-73
2021/11/04 10:42:10;;;;;;;19.30;11.20;;;;;;;11.44;63.89;100579.59;5035387;27;113173;-75
2021/11/04 10:44:37;;;;;;;19.83;11.18;;;;;;;11.47;64.01;100591.81;5029644;28;123803;-75
2021/11/04 10:47:05;;;;;;;18.38;11.10;;;;;;;11.50;63.90;100587.22;5030429;28;123158;-75
2021/11/04 10:49:43;;;;;;;18.20;10.68;;;;;;;11.54;63.92;100584.41;5023384;28;114120;-75
2021/11/04 10:52:13;;;;;;;19.27;11.05;;;;;;;11.55;63.69;100588.78;5014733;28;114181;-75
2021/11/04 10:54:46;;;;;;;18.05;10.57;;;;;;;11.55;63.75;100591.44;5021557;27;123938;-76
2021/11/04 10:57:14;;;;;;;17.23;10.35;;;;;;;11.56;63.61;100606.41;5026092;28;123831;-76
2021/11/04 10:59:48;;;;;;;18.15;10.50;;;;;;;11.56;63.64;100601.09;5023259;27;113528;-74
2021/11/04 11:02:18;;;;;;;16.73;10.50;;;;;;;11.60;63.58;100602.66;5010944;28;112866;-75
2021/11/04 11:04:45;;;;;;;18.40;11.07;;;;;;;11.64;63.77;100598.88;5006800;28;123096;-75
2021/11/04 11:07:13;;;;;;;17.75;10.73;;;;;;;11.68;63.86;100595.16;5004475;28;123262;-76
2021/11/04 11:09:40;;;;;;;18.45;10.13;;;;;;;11.73;63.83;100598.41;5019894;28;114264;-74